• Join FlightAware (Why Join?)
  • Login
  • US Flag 
06:50AM EDT


 

Airport Tracker/Info


-or-


 

Live Flight TrackerFlight Track Log ✈ N102WY ✈ 27-Feb-2014 ✈ KCYS - KGEY

Flight Track Log - Related Links

Times and Time Zones

All times are in EST time to prevent confusion due to time zone crossing. See the N102WY flight status page for this flight to view local times or setup timezone preferences in your user account.

Time Position Orientation Groundspeed Altitude Reporting Facility
EST Latitude Longitude Course Direction KTS MPH feet Rate Location/Type
12:11PM 41.1578 -104.8286 326° Northwest 151 174 8,100  Level Denver Center
12:12PM 41.1953 -104.8706 320° Northwest 181 208 10,900 2,280 Climbing Denver Center
12:14PM 41.2606 -104.9281 326° Northwest 237 273 12,900 2,280 Climbing Denver Center
12:15PM 41.3222 -104.9839 326° Northwest 268 308 16,200 3,360 Climbing Denver Center
12:16PM 41.4053 -105.0625 325° Northwest 283 326 20,700 3,360 Climbing Denver Center
12:17PM 41.6575 -105.2597 326° Northwest  Level FlightAware Approximate
12:17PM 41.4700 -105.1189 327° Northwest 287 330 23,300  Level Denver Center
12:18PM 41.5389 -105.1808 326° Northwest 303 349 25,400 2,100 Climbing Denver Center
12:19PM 41.6228 -105.2597 325° Northwest 323 372 27,700 2,220 Climbing Denver Center
12:20PM 41.7108 -105.3411 325° Northwest 338 389 30,100 2,160 Climbing Denver Center
12:21PM 41.7869 -105.4097 326° Northwest 342 394 32,200 2,160 Climbing Denver Center
12:22PM 41.8761 -105.4936 325° Northwest 346 398 34,600 1,740 Climbing Denver Center
12:23PM 41.9517 -105.5631 326° Northwest 346 398 35,800 660 Climbing Denver Center
12:24PM 42.0422 -105.6489 325° Northwest 350 403 36,000 60 Climbing Denver Center
12:25PM 42.1150 -105.7167 325° Northwest 343 395 36,000  Level Denver Center
12:26PM 42.2008 -105.7969 325° Northwest 338 389 36,000  Level Denver Center
12:27PM 42.2719 -105.8642 325° Northwest 329 379 36,000  Level Denver Center
12:28PM 42.3417 -105.9308 325° Northwest 325 374 36,000  Level Denver Center
12:29PM 42.4217 -106.0069 325° Northwest 318 366 36,000  Level Denver Center
12:30PM 42.4892 -106.0706 325° Northwest 311 358 36,000  Level Denver Center
12:31PM 42.5664 -106.1431 325° Northwest 308 354 36,000  Level Denver Center
12:32PM 42.6322 -106.2056 325° Northwest 306 352 36,000  Level Denver Center
12:33PM 42.7086 -106.2794 325° Northwest 304 350 36,000  Level Denver Center
12:34PM 42.7761 -106.3453 324° Northwest 307 353 36,000  Level Denver Center
12:35PM 42.8333 -106.4003 325° Northwest 311 358 36,000  Level Denver Center
12:36PM 42.9236 -106.4892 324° Northwest 313 360 36,000  Level Denver Center
12:38PM 43.0039 -106.5647 325° Northwest 314 361 36,000  Level Denver Center
12:39PM 43.0725 -106.6328 324° Northwest 315 362 36,000  Level Denver Center
12:40PM 43.1525 -106.7117 324° Northwest 315 362 36,000  Level Denver Center
12:40PM 43.1858 -106.7472 322° Northwest 317 365 36,000  Level Salt Lake Center
12:41PM 43.2661 -106.8261 324° Northwest 318 366 36,000  Level Salt Lake Center
12:42PM 43.3350 -106.8947 324° Northwest 319 367 36,000  Level Salt Lake Center
12:43PM 43.4053 -106.9583 327° Northwest 319 367 36,000  Level Salt Lake Center
12:44PM 43.4928 -107.0436 325° Northwest 320 368 36,000  Level Salt Lake Center
12:45PM 43.5650 -107.1172 324° Northwest 322 371 36,000 -120 Level Salt Lake Center
12:46PM 43.6397 -107.1914 324° Northwest 328 377 35,800 -1,020 Descending Salt Lake Center
12:47PM 43.7153 -107.2697 323° Northwest 336 387 34,000 -1,860 Descending Salt Lake Center
12:48PM 43.7939 -107.3514 323° Northwest 352 405 32,000 -1,920 Descending Salt Lake Center
12:49PM 43.8744 -107.4311 325° Northwest 356 410 30,100 -2,220 Descending Salt Lake Center
12:50PM 43.9536 -107.5100 324° Northwest 352 405 27,500 -3,000 Descending Salt Lake Center
12:52PM 44.0453 -107.6011 324° Northwest 339 390 24,000 -3,240 Descending Salt Lake Center
12:53PM 44.1161 -107.6739 324° Northwest 321 369 20,900 -3,180 Descending Salt Lake Center
12:54PM 44.1842 -107.7436 324° Northwest 308 354 17,500 -3,360 Descending Salt Lake Center